KPOB/POB METAR and TAF weather

Enter ICAO airport designator
Station Type Date Time Source
KPOB METAR 2020/09/26 23:56 UTC NOAA

KPOB 262356Z AUTO 00000KT 10SM CLR 20/18 A2999 RMK AO2 SLP157 T01980183 10234 20198 52008 $


Station Type Date Time Source
KPOB Decoded METAR 2020/09/26 23:56 UTC NOAA

Pope Air Force Base, NC, United States (KPOB) 35-10N 079-02W 61M
Sep 26, 2020 - 07:56 PM EDT / 2020.09.26 2356 UTC
Wind: Calm:0
Visibility: 10 mile(s):0
Sky conditions: clear
Temperature: 67.6 F (19.8 C)
Dew Point: 64.9 F (18.3 C)
Relative Humidity: 91%
Pressure (altimeter): 29.99 in. Hg (1015 hPa)
Pressure tendency: 0.02 inches (0.8 hPa) higher than three hours ago
ob: KPOB 262356Z AUTO 00000KT 10SM CLR 20/18 A2999 RMK AO2 SLP157 T01980183 10234 20198 52008
cycle: 0

Station Type Date Time Source
KPOB TAF 2020/09/26 17:14 UTC NOAA

TAF KPOB 261700Z 2617/2723 01006KT 9999 BKN012 BKN030 QNH2998INS
BECMG 2619/2620 03009KT 9999 SCT015 BKN030 BKN250 QNH2996INS
BECMG 2708/2709 35006KT 4800 BR BKN007 QNH3001INS
BECMG 2715/2716 04012KT 9999 NSW BKN012 BKN045 QNH3002INS
BECMG 2718/2719 06006KT 9999 SCT020 SCT050 QNH2999INS TX25/2621Z TN19/2711Z

Example: see airport list